Latest Coastal Weather Observations for Low Head

IDV60701

Issued at 10:15 pm EDT Saturday 25 October 2014 (issued every 10 minutes, with the page automatically refreshed every 10 minutes)

About coastal observations | Map of coastal stations | Coastal observations for VIC | Marine services | Other Formats
Station Details ID: 091293 Name: LOW HEAD Lat: -41.05 Lon: 146.79 Height: 3.0 m
Data from the previous 72 hours. | See also: Recent months at Low Head
Date/Time
EDT
Temp

°C
Wind Pressure Rain
since 9am
mm
Weather Cloud Vis
km
Sea
Height
m
Swell
Dir
 
Speed
knots
Gust
knots
hPa Trend Height
m
Period
s
Dir
25/10:00pm 14.8 NE 20 22 1015.9 - 0.2 - - - - - - -
25/09:30pm 14.8 NE 17 20 1016.2 - 0.2 - - - - - - -
25/09:00pm 14.8 NE 19 21 1016.3 - 0.2 - - - - - - -
25/08:30pm 14.9 NE 19 22 1016.0 - 0.2 - - - - - - -
25/08:00pm 14.9 NE 19 22 1015.8 - 0.2 - - - - - - -
25/07:30pm 15.0 NE 19 21 1015.5 - 0.2 - - - - - - -
25/07:00pm 15.1 NE 17 20 1015.0 - 0.2 - - - - - - -
25/06:30pm 15.3 ENE 17 20 1014.7 - 0.2 - - - - - - -
25/06:00pm 15.5 ENE 15 18 1014.4 - 0.2 - - - - - - -
25/05:30pm 15.6 NE 15 17 1014.2 - 0.2 - - - - - - -
25/05:00pm 16.2 NE 8 11 1014.6 - 0.2 - - - - - - -
25/04:30pm 15.8 NE 1 3 1014.5 - 0.2 - - - - - - -
25/04:00pm 16.1 NE 5 6 1014.3 - 0.2 - - - - - - -
25/03:30pm 14.8 NNE 14 17 1014.5 - 0.2 - - - - - - -
25/03:00pm 15.7 NE 13 15 1014.2 R 0.2 Fine Mostly cloudy 25 1 0.5 3 NW
25/02:30pm 15.7 NE 13 15 1014.0 - 0.2 - - - - - - -
25/02:00pm 15.8 ENE 12 14 1014.4 - 0.2 - - - - - - -
25/01:30pm 16.3 NE 13 15 1014.3 - 0.2 - - - - - - -
25/01:00pm 16.6 NE 11 12 1014.5 - 0.2 - - - - - - -
25/12:30pm 16.2 NNE 8 10 1014.7 - 0.2 - - - - - - -
25/12:00pm 17.6 N 6 7 1014.8 - 0.0 - - - - - - -
25/11:30am 17.0 N 7 8 1014.5 - 0.0 - - - - - - -
25/11:00am 17.1 N 7 11 1014.7 - 0.0 - - - - - - -
25/10:30am 17.0 SSW 9 11 1014.5 - 0.0 - - - - - - -
25/10:00am 15.8 S 8 8 1014.6 - 0.0 - - - - - - -
25/09:30am 15.7 S 6 7 1014.3 - 0.0 - - - - - - -
25/09:00am 14.7 S 5 6 1014.1 R 0.0 Fine Partly cloudy 25 1 0.5 3 NW
25/08:30am 14.2 S 4 5 1014.1 - 0.0 - - - - - - -
25/08:00am 13.6 SSW 5 8 1014.0 - 0.0 - - - - - - -
25/07:30am 13.9 SW 9 10 1013.7 - 0.0 - - - - - - -
25/07:00am 13.7 WSW 9 11 1013.2 - 0.0 - - - - - - -
25/06:30am 13.6 WSW 9 10 1012.3 - 0.0 - - - - - - -
25/06:00am 13.8 WSW 10 13 1012.0 R 0.0 Fine Mostly clear 25 <0.5 0.5 3 NW
25/05:30am 13.8 WSW 9 11 1011.7 - 0.0 - - - - - - -
25/05:00am 14.0 WSW 15 17 1011.1 - 0.0 - - - - - - -
25/04:30am 14.1 W 16 19 1010.7 - 0.0 - - - - - - -
25/04:00am 14.0 W 17 20 1010.5 - 0.0 - - - - - - -
25/03:30am 14.3 W 18 21 1010.5 - 0.0 - - - - - - -
25/03:00am 14.2 W 20 22 1010.2 - 0.0 - - - - - - -
25/02:30am 14.2 W 21 24 1010.3 - 0.0 - - - - - - -
25/02:00am 14.1 W 14 17 1010.3 - 0.0 - - - - - - -
25/01:30am 13.9 W 11 14 1010.5 - 0.0 - - - - - - -
25/01:00am 14.0 W 13 15 1010.7 - 0.0 - - - - - - -
25/12:30am 14.2 W 15 18 1010.7 - 0.0 - - - - - - -
25/12:00am 14.3 W 13 15 1010.6 - 0.0 - - - - - - -
 
Date/Time
EDT
Temp

°C
Wind Pressure Rain
since 9am
mm
Weather Cloud Vis
km
Sea
Height
m
Swell
Dir
 
Speed
knots
Gust
knots
hPa Trend Height
m
Period
s
Dir
24/11:30pm 14.3 WNW 12 15 1010.4 - 0.0 - - - - - - -
24/11:00pm 14.4 W 11 13 1010.2 - 0.0 - - - - - - -
24/10:30pm 14.4 WNW 9 10 1010.4 - 0.0 - - - - - - -
24/10:00pm 14.6 NW 7 8 1010.4 - 0.0 - - - - - - -
24/09:30pm 14.8 N 6 7 1010.4 - 0.0 - - - - - - -
24/09:00pm 14.9 N 7 8 1010.7 - 0.0 - - - - - - -
24/08:30pm 15.1 NNE 9 10 1010.4 - 0.0 - - - - - - -
24/08:00pm 15.4 NE 11 13 1009.6 - 0.0 - - - - - - -
24/07:30pm 15.8 ENE 12 13 1009.3 - 0.0 - - - - - - -
24/07:00pm 16.1 ENE 12 14 1009.2 - 0.0 - - - - - - -
24/06:30pm 16.1 ENE 13 15 1009.5 - 0.0 - - - - - - -
24/06:00pm 16.2 ENE 15 16 1009.6 - 0.0 - - - - - - -
24/05:30pm 16.4 ENE 14 17 1010.0 - 0.0 - - - - - - -
24/05:00pm 16.4 ENE 18 22 1009.7 - 0.0 - - - - - - -
24/04:30pm 16.3 ENE 18 22 1010.3 - 0.0 - - - - - - -
24/04:00pm 16.6 ENE 19 23 1010.6 - 0.0 - - - - - - -
24/03:30pm 16.5 ENE 19 24 1011.1 - 0.0 - - - - - - -
24/03:00pm 16.5 ENE 20 27 1011.4 R 0.0 Fine Cloudy 15 1 1.0 3 NE
24/02:30pm 16.5 E 20 25 1011.9 - 0.0 - - - - - - -
24/02:00pm 16.4 E 20 25 1012.4 - 0.0 - - - - - - -
24/01:30pm 16.3 E 21 25 1012.8 - 0.0 - - - - - - -
24/01:00pm 15.9 E 18 23 1013.5 - 0.0 - - - - - - -
24/12:30pm 15.2 E 12 16 1014.3 - 0.0 - - - - - - -
24/12:00pm 14.9 E 10 14 1015.1 - 0.0 - - - - - - -
24/11:30am 14.8 ESE 11 16 1015.5 - 0.0 - - - - - - -
24/11:00am 13.2 SE 7 13 1016.1 - 0.0 - - - - - - -
24/10:30am 12.3 SE 7 15 1016.5 - 0.0 - - - - - - -
24/10:00am 13.9 E 13 19 1016.8 - 0.0 - - - - - - -
24/09:30am 10.4 SSE 10 13 1017.2 - 0.0 - - - - - - -
24/09:00am 10.4 SSE 12 17 1017.6 F 0.0 Fine Cloudy 25 <0.5 0.5 3 -
24/08:30am 10.1 SSE 12 16 1018.0 - 0.0 - - - - - - -
24/08:00am 9.7 SSE 13 18 1018.3 - 0.0 - - - - - - -
24/07:30am 9.6 SSE 13 17 1018.6 - 0.0 - - - - - - -
24/07:00am 9.4 SSE 14 21 1018.8 - 0.0 - - - - - - -
24/06:30am 9.5 SSE 13 17 1019.3 - 0.0 - - - - - - -
24/06:00am 9.4 SSE 14 19 1019.3 S 0.0 Fine Cloudy 20 <0.5 0.3 3 -
24/05:30am 9.2 SSE 12 16 1019.4 - 0.0 - - - - - - -
24/05:00am 9.3 SSE 11 16 1019.7 - 0.0 - - - - - - -
24/04:30am 9.4 SSE 12 16 1020.0 - 0.0 - - - - - - -
24/04:00am 9.4 SSE 13 16 1020.2 - 0.0 - - - - - - -
24/03:30am 9.5 SSE 12 16 1020.8 - 0.0 - - - - - - -
24/03:00am 9.2 SSE 12 15 1021.3 - 0.0 - - - - - - -
24/02:30am 9.1 SSE 10 13 1022.0 - 0.0 - - - - - - -
24/02:00am 9.2 SSE 11 14 1022.1 - 0.0 - - - - - - -
24/01:30am 10.0 SE 9 13 1022.4 - 0.0 - - - - - - -
24/01:00am 9.9 SE 7 9 1023.2 - 0.0 - - - - - - -
24/12:30am 10.5 ESE 9 12 1023.4 - 0.0 - - - - - - -
24/12:00am 12.2 E 18 21 1023.7 - 0.0 - - - - - - -
 
Date/Time
EDT
Temp

°C
Wind Pressure Rain
since 9am
mm
Weather Cloud Vis
km
Sea
Height
m
Swell
Dir
 
Speed
knots
Gust
knots
hPa Trend Height
m
Period
s
Dir
23/11:30pm 12.2 E 15 20 1023.6 - 0.0 - - - - - - -
23/11:00pm 11.3 E 13 15 1023.8 - 0.0 - - - - - - -
23/10:30pm 11.9 E 14 17 1023.8 - 0.0 - - - - - - -
23/10:00pm 12.2 E 14 17 1023.6 - 0.0 - - - - - - -
23/09:30pm 12.9 ENE 16 18 1023.3 - 0.0 - - - - - - -
23/09:00pm 13.5 ENE 17 20 1023.3 - 0.0 - - - - - - -
23/08:30pm 14.1 ENE 23 26 1022.9 - 0.0 - - - - - - -
23/08:00pm 14.5 ENE 20 25 1022.4 - 0.0 - - - - - - -
23/07:30pm 14.9 ENE 21 26 1022.0 - 0.0 - - - - - - -
23/07:00pm 15.2 ENE 21 25 1021.7 - 0.0 - - - - - - -
23/06:30pm 15.2 NE 18 21 1021.7 - 0.0 - - - - - - -
23/06:00pm 15.4 NE 17 19 1021.7 - 0.0 - - - - - - -
23/05:30pm 15.6 NE 17 21 1021.7 - 0.0 - - - - - - -
23/05:00pm 15.6 NE 16 20 1021.7 - 0.0 - - - - - - -
23/04:30pm 15.8 NE 14 17 1021.8 - 0.0 - - - - - - -
23/04:00pm 16.0 NE 14 16 1021.9 - 0.0 - - - - - - -
23/03:30pm 16.0 NE 14 15 1022.1 - 0.0 - - - - - - -
23/03:00pm 16.0 NE 15 18 1022.1 R 0.0 Fine Partly cloudy 25 <0.5 0.5 3 NE
23/02:30pm 15.5 NNE 12 14 1022.5 - 0.0 - - - - - - -
23/02:00pm 15.1 NNE 12 14 1022.5 - 0.0 - - - - - - -
23/01:30pm 15.0 NNE 14 15 1022.5 - 0.0 - - - - - - -
23/01:00pm 15.1 NNE 13 14 1022.4 - 0.0 - - - - - - -
23/12:30pm 15.8 NE 13 19 1022.2 - 0.0 - - - - - - -
23/12:00pm 17.5 SSE 13 18 1022.3 - 0.0 - - - - - - -
23/11:30am 17.2 SSE 15 20 1022.6 - 0.0 - - - - - - -
23/11:00am 16.6 SSE 15 22 1022.7 - 0.0 - - - - - - -
23/10:30am 15.8 SSE 17 23 1022.7 - 0.0 - - - - - - -
23/10:00am 14.6 SSE 21 28 1022.3 - 0.0 - - - - - - -
23/09:30am 14.0 SSE 20 29 1022.0 - 0.0 - - - - - - -
23/09:14am 14.0 SSE 19 29 1022.1 - 0.0 - - - - - - -
23/09:00am 13.8 SSE 20 28 1021.9 F 0.0 Fine Partly cloudy 25 1 0.5 3 NE
23/08:31am 13.7 SSE 18 28 1021.7 - 0.0 - - - - - - -
23/08:30am 13.7 SSE 19 28 1021.6 - 0.0 - - - - - - -
23/08:02am 13.4 SSE 19 29 1021.2 - 0.0 - - - - - - -
23/08:00am 13.3 SSE 20 29 1021.2 - 0.0 - - - - - - -
23/07:36am 13.2 SSE 21 31 1020.6 - 0.0 - - - - - - -
23/07:30am 13.2 SSE 21 28 1020.4 - 0.0 - - - - - - -
23/07:00am 13.3 SSE 20 28 1019.5 - 0.0 - - - - - - -
23/06:42am 13.5 SSE 21 31 1019.2 - 0.0 - - - - - - -
23/06:30am 13.6 SSE 22 30 1019.0 - 0.0 - - - - - - -
23/06:00am 13.8 SSE 18 27 1018.6 S 0.0 Fine Partly cloudy 25 <0.5 0.5 3 NE
23/05:30am 13.7 SE 11 19 1018.6 - 0.0 - - - - - - -
23/05:00am 13.2 SSE 9 12 1018.4 - 0.0 - - - - - - -
23/04:30am 13.1 SE 8 9 1018.3 - 0.0 - - - - - - -
23/04:00am 13.6 ESE 8 11 1017.9 - 0.0 - - - - - - -
23/03:30am 13.8 ESE 8 12 1017.6 - 0.0 - - - - - - -
23/03:00am 14.0 SSE 12 17 1017.0 - 0.0 - - - - - - -
23/02:30am 13.8 SSE 16 21 1016.7 - 0.0 - - - - - - -
23/02:00am 13.4 SSE 14 21 1016.4 - 0.0 - - - - - - -
23/01:30am 12.0 SSE 6 8 1016.8 - 0.0 - - - - - - -
23/01:00am 12.6 S 9 13 1017.3 - 0.0 - - - - - - -
23/12:30am 12.1 S 6 7 1017.0 - 0.0 - - - - - - -
23/12:00am 12.8 SSE 4 5 1016.7 - 0.0 - - - - - - -
 
Date/Time
EDT
Temp

°C
Wind Pressure Rain
since 9am
mm
Weather Cloud Vis
km
Sea
Height
m
Swell
Dir
 
Speed
knots
Gust
knots
hPa Trend Height
m
Period
s
Dir
22/11:30pm 13.1 CALM 0 0 1016.5 - 0.0 - - - - - - -
22/11:00pm 13.4 CALM 0 0 1016.4 - 0.0 - - - - - - -
22/10:30pm 14.1 NNW 2 5 1015.8 - 0.0 - - - - - - -

Other Formats:

Comma delimited format used in spreadsheet applications
http://www.bom.gov.au/fwo/IDV60701/IDV60701.95964.axf

JavaScript Object Notation format (JSON) in row-major order
http://www.bom.gov.au/fwo/IDV60701/IDV60701.95964.json